AEE3RF LIRF-LGAV
Flight info
| Callsign | AEE3RF |
|---|---|
| Flight time | 1h 34m |
| Altitude | 35000 |
| Route | PEPIX L50 UNIXO DCT LAMEB DCT RUTOM DCT ARA UY144 NEMES |
| Aircraft | A321/M-SDE3FGHIRWY/LB1 |
Departure
| Time | 2026-05-04 18:47 |
|---|---|
| Airport | Rome–Fiumicino Leonardo da Vinci International Airport (LIRF) |
Arrival
| Time | 2026-05-04 20:21 |
|---|---|
| Airport | Athens Eleftherios Venizelos International Airport (LGAV) |
| Time | Latitude | Longitude | Altitude | Speed | Heading |
|---|---|---|---|---|---|
| 2026-05-04 18:10 | 41.79924 | 12.26622 | 23 ft | 0 kts | 250° |
| 2026-05-04 18:40 | 41.79923 | 12.26620 | 23 ft | 0 kts | 250° |
| 2026-05-04 18:41 | 41.79919 | 12.26606 | 23 ft | 2 kts | 250° |
| 2026-05-04 18:41 | 41.79915 | 12.26579 | 23 ft | 3 kts | 275° |
| 2026-05-04 18:41 | 41.79932 | 12.26551 | 23 ft | 4 kts | 334° |
| 2026-05-04 18:41 | 41.80003 | 12.26511 | 23 ft | 15 kts | 338° |
| 2026-05-04 18:42 | 41.80094 | 12.26464 | 23 ft | 13 kts | 340° |
| 2026-05-04 18:42 | 41.80189 | 12.26421 | 23 ft | 14 kts | 346° |
| 2026-05-04 18:42 | 41.80278 | 12.26376 | 23 ft | 13 kts | 308° |
| 2026-05-04 18:42 | 41.80319 | 12.26262 | 23 ft | 12 kts | 294° |
| 2026-05-04 18:43 | 41.80374 | 12.26178 | 23 ft | 12 kts | 337° |
| 2026-05-04 18:43 | 41.80463 | 12.26176 | 23 ft | 13 kts | 18° |
| 2026-05-04 18:43 | 41.80533 | 12.26256 | 23 ft | 13 kts | 66° |
| 2026-05-04 18:43 | 41.80569 | 12.26376 | 23 ft | 14 kts | 69° |
| 2026-05-04 18:44 | 41.80605 | 12.26504 | 23 ft | 15 kts | 70° |
| 2026-05-04 18:44 | 41.80629 | 12.26594 | 23 ft | 15 kts | 70° |
| 2026-05-04 18:44 | 41.80677 | 12.26780 | 23 ft | 16 kts | 71° |
| 2026-05-04 18:44 | 41.80717 | 12.26925 | 23 ft | 16 kts | 69° |
| 2026-05-04 18:45 | 41.80759 | 12.27045 | 23 ft | 12 kts | 43° |
| 2026-05-04 18:45 | 41.80843 | 12.27039 | 23 ft | 13 kts | 342° |
| 2026-05-04 18:45 | 41.80930 | 12.26998 | 23 ft | 10 kts | 339° |
| 2026-05-04 18:45 | 41.80961 | 12.26946 | 23 ft | 5 kts | 262° |
| 2026-05-04 18:46 | 41.80950 | 12.26898 | 23 ft | 6 kts | 251° |
| 2026-05-04 18:46 | 41.80912 | 12.26754 | 23 ft | 44 kts | 249° |
| 2026-05-04 18:46 | 41.80715 | 12.26049 | 23 ft | 115 kts | 250° |
| 2026-05-04 18:46 | 41.80366 | 12.24785 | 45 ft | 169 kts | 248° |
| 2026-05-04 18:47 | 41.79964 | 12.23295 | 666 ft | 170 kts | 249° |
| 2026-05-04 18:47 | 41.79566 | 12.21877 | 1484 ft | 161 kts | 244° |
| 2026-05-04 18:47 | 41.79017 | 12.20687 | 2126 ft | 146 kts | 223° |
| 2026-05-04 18:47 | 41.78276 | 12.19783 | 2511 ft | 145 kts | 217° |
| 2026-05-04 18:48 | 41.77477 | 12.18912 | 2793 ft | 154 kts | 216° |
| 2026-05-04 18:48 | 41.76614 | 12.17974 | 3054 ft | 166 kts | 217° |
| 2026-05-04 18:48 | 41.75653 | 12.17027 | 3317 ft | 178 kts | 203° |
| 2026-05-04 18:48 | 41.74411 | 12.16734 | 3589 ft | 190 kts | 179° |
| 2026-05-04 18:49 | 41.73042 | 12.16808 | 3885 ft | 204 kts | 177° |
| 2026-05-04 18:49 | 41.71562 | 12.16899 | 4135 ft | 224 kts | 177° |
| 2026-05-04 18:49 | 41.69940 | 12.16993 | 4463 ft | 242 kts | 177° |
| 2026-05-04 18:49 | 41.68206 | 12.17085 | 4948 ft | 255 kts | 178° |
| 2026-05-04 18:50 | 41.66427 | 12.17173 | 5674 ft | 259 kts | 178° |
| 2026-05-04 18:50 | 41.64628 | 12.17260 | 6464 ft | 261 kts | 178° |
| 2026-05-04 18:50 | 41.62813 | 12.17346 | 7218 ft | 265 kts | 178° |
| 2026-05-04 18:50 | 41.60964 | 12.17434 | 7945 ft | 269 kts | 178° |
| 2026-05-04 18:51 | 41.59091 | 12.17522 | 8659 ft | 273 kts | 178° |
| 2026-05-04 18:51 | 41.57182 | 12.17598 | 9343 ft | 278 kts | 181° |
| 2026-05-04 18:51 | 41.55248 | 12.17474 | 10009 ft | 282 kts | 187° |
| 2026-05-04 18:51 | 41.53299 | 12.17092 | 10594 ft | 289 kts | 191° |
| 2026-05-04 18:52 | 41.51272 | 12.16601 | 10930 ft | 305 kts | 192° |
| 2026-05-04 18:52 | 41.49132 | 12.16071 | 11254 ft | 321 kts | 191° |
| 2026-05-04 18:52 | 41.46899 | 12.15519 | 11732 ft | 331 kts | 192° |
| 2026-05-04 18:52 | 41.44633 | 12.14965 | 12385 ft | 334 kts | 192° |
| 2026-05-04 18:53 | 41.42343 | 12.14406 | 13023 ft | 337 kts | 193° |
| 2026-05-04 18:53 | 41.40033 | 12.13843 | 13654 ft | 340 kts | 193° |
| 2026-05-04 18:53 | 41.37702 | 12.13273 | 14270 ft | 343 kts | 193° |
| 2026-05-04 18:53 | 41.35352 | 12.12698 | 14876 ft | 346 kts | 193° |
| 2026-05-04 18:54 | 41.32948 | 12.12356 | 15455 ft | 352 kts | 183° |
| 2026-05-04 18:54 | 41.30496 | 12.12680 | 16036 ft | 359 kts | 171° |
| 2026-05-04 18:54 | 41.28085 | 12.13580 | 16628 ft | 363 kts | 165° |
| 2026-05-04 18:54 | 41.25684 | 12.14631 | 17177 ft | 366 kts | 164° |
| 2026-05-04 18:55 | 41.23258 | 12.15705 | 17706 ft | 370 kts | 165° |
| 2026-05-04 18:55 | 41.18352 | 12.17855 | 18773 ft | 376 kts | 162° |
| 2026-05-04 18:55 | 41.15984 | 12.19383 | 19242 ft | 384 kts | 151° |
| 2026-05-04 18:56 | 41.13833 | 12.21506 | 19712 ft | 391 kts | 140° |
| 2026-05-04 18:56 | 41.11854 | 12.23993 | 20172 ft | 395 kts | 137° |
| 2026-05-04 18:56 | 41.09895 | 12.26560 | 20627 ft | 399 kts | 137° |
| 2026-05-04 18:56 | 41.07921 | 12.29149 | 21096 ft | 402 kts | 137° |
| 2026-05-04 18:57 | 41.05927 | 12.31751 | 21542 ft | 405 kts | 137° |
| 2026-05-04 18:57 | 41.03908 | 12.34367 | 21964 ft | 409 kts | 137° |
| 2026-05-04 18:57 | 41.01869 | 12.36997 | 22396 ft | 412 kts | 137° |
| 2026-05-04 18:57 | 40.99811 | 12.39646 | 22818 ft | 415 kts | 137° |
| 2026-05-04 18:58 | 40.97737 | 12.42310 | 23221 ft | 419 kts | 137° |
| 2026-05-04 18:58 | 40.95645 | 12.44996 | 23631 ft | 422 kts | 137° |
| 2026-05-04 18:58 | 40.93535 | 12.47703 | 24022 ft | 425 kts | 137° |
| 2026-05-04 18:58 | 40.91407 | 12.50427 | 24406 ft | 429 kts | 137° |
| 2026-05-04 18:59 | 40.89260 | 12.53174 | 24791 ft | 432 kts | 137° |
| 2026-05-04 18:59 | 40.87099 | 12.55935 | 25166 ft | 435 kts | 137° |
| 2026-05-04 18:59 | 40.84921 | 12.58716 | 25521 ft | 438 kts | 137° |
| 2026-05-04 18:59 | 40.82724 | 12.61516 | 25871 ft | 442 kts | 138° |
| 2026-05-04 19:00 | 40.80513 | 12.64330 | 26219 ft | 445 kts | 137° |
| 2026-05-04 19:00 | 40.78381 | 12.67313 | 26548 ft | 449 kts | 132° |
| 2026-05-04 19:00 | 40.76481 | 12.70605 | 26856 ft | 454 kts | 126° |
| 2026-05-04 19:00 | 40.74829 | 12.74158 | 27171 ft | 458 kts | 121° |
| 2026-05-04 19:01 | 40.73263 | 12.77808 | 27482 ft | 461 kts | 120° |
| 2026-05-04 19:01 | 40.71704 | 12.81498 | 27785 ft | 463 kts | 120° |
| 2026-05-04 19:01 | 40.70133 | 12.85204 | 28110 ft | 465 kts | 120° |
| 2026-05-04 19:01 | 40.68551 | 12.88917 | 28420 ft | 468 kts | 120° |
| 2026-05-04 19:02 | 40.66953 | 12.92648 | 28696 ft | 471 kts | 120° |
| 2026-05-04 19:02 | 40.65340 | 12.96396 | 28968 ft | 473 kts | 120° |
| 2026-05-04 19:02 | 40.63715 | 13.00162 | 29236 ft | 476 kts | 121° |
| 2026-05-04 19:02 | 40.62077 | 13.03949 | 29514 ft | 479 kts | 120° |
| 2026-05-04 19:03 | 40.60429 | 13.07754 | 29782 ft | 481 kts | 120° |
| 2026-05-04 19:03 | 40.58770 | 13.11573 | 30045 ft | 484 kts | 120° |
| 2026-05-04 19:03 | 40.57105 | 13.15408 | 30298 ft | 486 kts | 120° |
| 2026-05-04 19:03 | 40.55430 | 13.19258 | 30580 ft | 488 kts | 120° |
| 2026-05-04 19:04 | 40.53751 | 13.23115 | 30939 ft | 487 kts | 120° |
| 2026-05-04 19:04 | 40.52076 | 13.26961 | 31324 ft | 486 kts | 120° |
| 2026-05-04 19:04 | 40.50396 | 13.30809 | 31685 ft | 486 kts | 120° |
| 2026-05-04 19:04 | 40.48720 | 13.34644 | 32022 ft | 486 kts | 120° |
| 2026-05-04 19:05 | 40.47045 | 13.38475 | 32366 ft | 486 kts | 120° |
| 2026-05-04 19:05 | 40.45369 | 13.42301 | 32694 ft | 485 kts | 120° |
| 2026-05-04 19:05 | 40.43690 | 13.46121 | 33035 ft | 485 kts | 120° |
| 2026-05-04 19:05 | 40.42016 | 13.49939 | 33346 ft | 484 kts | 120° |
| 2026-05-04 19:06 | 40.40337 | 13.53754 | 33629 ft | 485 kts | 120° |
| 2026-05-04 19:06 | 40.38653 | 13.57579 | 33855 ft | 486 kts | 120° |
| 2026-05-04 19:06 | 40.36964 | 13.61412 | 34061 ft | 488 kts | 120° |
| 2026-05-04 19:06 | 40.35265 | 13.65260 | 34290 ft | 490 kts | 121° |
| 2026-05-04 19:07 | 40.33563 | 13.69112 | 34525 ft | 490 kts | 121° |
| 2026-05-04 19:07 | 40.31856 | 13.72967 | 34737 ft | 491 kts | 121° |
| 2026-05-04 19:07 | 40.30146 | 13.76824 | 34972 ft | 491 kts | 121° |
| 2026-05-04 19:07 | 40.28432 | 13.80686 | 35126 ft | 492 kts | 121° |
| 2026-05-04 19:08 | 40.25006 | 13.88395 | 35133 ft | 491 kts | 121° |
| 2026-05-04 19:08 | 40.21577 | 13.96090 | 35132 ft | 492 kts | 121° |
| 2026-05-04 19:09 | 40.18139 | 14.03785 | 35132 ft | 492 kts | 120° |
| 2026-05-04 19:09 | 40.14696 | 14.11472 | 35133 ft | 492 kts | 120° |
| 2026-05-04 19:10 | 40.11248 | 14.19152 | 35134 ft | 491 kts | 120° |
| 2026-05-04 19:10 | 40.07795 | 14.26823 | 35133 ft | 492 kts | 120° |
| 2026-05-04 19:11 | 40.04336 | 14.34494 | 35131 ft | 491 kts | 120° |
| 2026-05-04 19:11 | 40.00871 | 14.42149 | 35134 ft | 492 kts | 120° |
| 2026-05-04 19:12 | 39.95649 | 14.53657 | 35133 ft | 493 kts | 120° |
| 2026-05-04 19:13 | 39.92164 | 14.61318 | 35135 ft | 493 kts | 120° |
| 2026-05-04 19:13 | 39.88682 | 14.68949 | 35126 ft | 492 kts | 120° |
| 2026-05-04 19:14 | 39.85171 | 14.76628 | 35131 ft | 493 kts | 120° |
| 2026-05-04 19:14 | 39.83418 | 14.80453 | 35003 ft | 493 kts | 120° |
| 2026-05-04 19:14 | 39.81667 | 14.84267 | 35186 ft | 494 kts | 120° |
| 2026-05-04 19:14 | 39.79913 | 14.88088 | 35080 ft | 493 kts | 120° |
| 2026-05-04 19:15 | 39.78159 | 14.91901 | 35105 ft | 493 kts | 120° |
| 2026-05-04 19:15 | 39.74645 | 14.99526 | 35123 ft | 493 kts | 120° |
| 2026-05-04 19:16 | 39.71124 | 15.07160 | 35131 ft | 494 kts | 120° |
| 2026-05-04 19:16 | 39.67594 | 15.14778 | 35151 ft | 494 kts | 120° |
| 2026-05-04 19:17 | 39.64066 | 15.22380 | 35134 ft | 494 kts | 120° |
| 2026-05-04 19:17 | 39.60527 | 15.29984 | 35134 ft | 494 kts | 120° |
| 2026-05-04 19:18 | 39.56982 | 15.37585 | 35132 ft | 494 kts | 120° |
| 2026-05-04 19:18 | 39.53434 | 15.45177 | 35137 ft | 495 kts | 120° |
| 2026-05-04 19:19 | 39.49874 | 15.52773 | 35134 ft | 495 kts | 119° |
| 2026-05-04 19:19 | 39.46311 | 15.60363 | 35132 ft | 495 kts | 120° |
| 2026-05-04 19:20 | 39.42744 | 15.67937 | 35133 ft | 495 kts | 120° |
| 2026-05-04 19:20 | 39.39173 | 15.75500 | 35134 ft | 494 kts | 120° |
| 2026-05-04 19:21 | 39.35596 | 15.83065 | 35134 ft | 495 kts | 120° |
| 2026-05-04 19:21 | 39.32010 | 15.90623 | 35136 ft | 495 kts | 119° |
| 2026-05-04 19:22 | 39.28425 | 15.98170 | 35135 ft | 495 kts | 120° |
| 2026-05-04 19:22 | 39.24827 | 16.05725 | 35136 ft | 495 kts | 120° |
| 2026-05-04 19:23 | 39.21229 | 16.13258 | 35139 ft | 495 kts | 119° |
| 2026-05-04 19:23 | 39.17625 | 16.20793 | 35147 ft | 496 kts | 119° |
| 2026-05-04 19:24 | 39.14012 | 16.28331 | 35156 ft | 496 kts | 119° |
| 2026-05-04 19:24 | 39.10439 | 16.35895 | 35162 ft | 495 kts | 116° |
| 2026-05-04 19:25 | 39.07445 | 16.43823 | 35167 ft | 493 kts | 108° |
| 2026-05-04 19:25 | 39.05296 | 16.52104 | 35174 ft | 488 kts | 100° |
| 2026-05-04 19:26 | 39.03603 | 16.60522 | 35173 ft | 487 kts | 99° |
| 2026-05-04 19:26 | 39.01912 | 16.68944 | 35165 ft | 489 kts | 100° |
| 2026-05-04 19:27 | 39.00182 | 16.77389 | 35163 ft | 489 kts | 100° |
| 2026-05-04 19:27 | 38.98439 | 16.85821 | 35151 ft | 490 kts | 99° |
| 2026-05-04 19:28 | 38.96692 | 16.94244 | 35143 ft | 490 kts | 99° |
| 2026-05-04 19:28 | 38.94931 | 17.02686 | 35139 ft | 489 kts | 100° |
| 2026-05-04 19:29 | 38.93160 | 17.11158 | 35137 ft | 490 kts | 99° |
| 2026-05-04 19:29 | 38.91391 | 17.19561 | 35134 ft | 489 kts | 99° |
| 2026-05-04 19:30 | 38.89622 | 17.27958 | 35131 ft | 489 kts | 99° |
| 2026-05-04 19:30 | 38.87841 | 17.36374 | 35135 ft | 489 kts | 99° |
| 2026-05-04 19:31 | 38.86030 | 17.44882 | 35133 ft | 489 kts | 99° |
| 2026-05-04 19:31 | 38.84228 | 17.53326 | 35132 ft | 489 kts | 99° |
| 2026-05-04 19:32 | 38.82425 | 17.61739 | 35133 ft | 491 kts | 99° |
| 2026-05-04 19:32 | 38.80609 | 17.70178 | 35134 ft | 490 kts | 100° |
| 2026-05-04 19:33 | 38.78798 | 17.78569 | 35130 ft | 490 kts | 100° |
| 2026-05-04 19:33 | 38.76983 | 17.86951 | 35135 ft | 490 kts | 100° |
| 2026-05-04 19:34 | 38.75153 | 17.95347 | 35132 ft | 489 kts | 100° |
| 2026-05-04 19:34 | 38.73320 | 18.03748 | 35132 ft | 491 kts | 100° |
| 2026-05-04 19:35 | 38.71484 | 18.12124 | 35131 ft | 490 kts | 100° |
| 2026-05-04 19:35 | 38.69646 | 18.20475 | 35135 ft | 489 kts | 100° |
| 2026-05-04 19:36 | 38.67804 | 18.28823 | 35136 ft | 489 kts | 100° |
| 2026-05-04 19:36 | 38.65954 | 18.37159 | 35008 ft | 488 kts | 100° |
| 2026-05-04 19:37 | 38.64105 | 18.45484 | 35109 ft | 488 kts | 100° |
| 2026-05-04 19:37 | 38.62249 | 18.53788 | 35132 ft | 487 kts | 100° |
| 2026-05-04 19:38 | 38.60389 | 18.62091 | 35137 ft | 488 kts | 100° |
| 2026-05-04 19:38 | 38.58520 | 18.70407 | 35139 ft | 488 kts | 101° |
| 2026-05-04 19:39 | 38.56648 | 18.78710 | 35144 ft | 488 kts | 101° |
| 2026-05-04 19:39 | 38.54772 | 18.86989 | 35141 ft | 487 kts | 101° |
| 2026-05-04 19:40 | 38.52892 | 18.95268 | 35141 ft | 487 kts | 101° |
| 2026-05-04 19:40 | 38.51289 | 19.03593 | 35144 ft | 482 kts | 95° |
| 2026-05-04 19:41 | 38.50125 | 19.11968 | 35145 ft | 480 kts | 94° |
| 2026-05-04 19:41 | 38.48988 | 19.20327 | 35148 ft | 480 kts | 94° |
| 2026-05-04 19:42 | 38.47835 | 19.28675 | 35148 ft | 479 kts | 94° |
| 2026-05-04 19:42 | 38.46671 | 19.37015 | 35146 ft | 479 kts | 94° |
| 2026-05-04 19:43 | 38.45499 | 19.45348 | 35149 ft | 479 kts | 94° |
| 2026-05-04 19:43 | 38.44322 | 19.53680 | 35144 ft | 479 kts | 94° |
| 2026-05-04 19:44 | 38.43139 | 19.62004 | 35149 ft | 478 kts | 94° |
| 2026-05-04 19:44 | 38.41951 | 19.70321 | 35147 ft | 478 kts | 95° |
| 2026-05-04 19:45 | 38.40758 | 19.78623 | 35148 ft | 477 kts | 95° |
| 2026-05-04 19:45 | 38.39561 | 19.86904 | 35147 ft | 475 kts | 95° |
| 2026-05-04 19:46 | 38.38366 | 19.95151 | 35149 ft | 475 kts | 95° |
| 2026-05-04 19:46 | 38.37166 | 20.03386 | 35146 ft | 474 kts | 95° |
| 2026-05-04 19:47 | 38.35958 | 20.11613 | 35148 ft | 474 kts | 95° |
| 2026-05-04 19:47 | 38.34746 | 20.19840 | 35148 ft | 475 kts | 95° |
| 2026-05-04 19:48 | 38.33525 | 20.28081 | 35150 ft | 475 kts | 95° |
| 2026-05-04 19:48 | 38.32300 | 20.36322 | 35154 ft | 475 kts | 95° |
| 2026-05-04 19:49 | 38.31066 | 20.44560 | 35157 ft | 475 kts | 95° |
| 2026-05-04 19:49 | 38.29828 | 20.52784 | 35158 ft | 475 kts | 95° |
| 2026-05-04 19:50 | 38.28588 | 20.61005 | 35161 ft | 474 kts | 95° |
| 2026-05-04 19:50 | 38.27341 | 20.69222 | 35159 ft | 474 kts | 96° |
| 2026-05-04 19:51 | 38.26089 | 20.77431 | 35160 ft | 474 kts | 96° |
| 2026-05-04 19:51 | 38.24831 | 20.85643 | 35160 ft | 474 kts | 96° |
| 2026-05-04 19:52 | 38.23565 | 20.93842 | 35158 ft | 474 kts | 96° |
| 2026-05-04 19:52 | 38.22300 | 21.02022 | 35157 ft | 473 kts | 96° |
| 2026-05-04 19:53 | 38.21030 | 21.10199 | 35155 ft | 473 kts | 96° |
| 2026-05-04 19:53 | 38.19752 | 21.18382 | 35154 ft | 474 kts | 96° |
| 2026-05-04 19:54 | 38.18469 | 21.26568 | 35154 ft | 474 kts | 96° |
| 2026-05-04 19:54 | 38.17176 | 21.34745 | 35156 ft | 474 kts | 96° |
| 2026-05-04 19:55 | 38.15449 | 21.42838 | 35158 ft | 479 kts | 104° |
| 2026-05-04 19:55 | 38.12914 | 21.50670 | 35156 ft | 483 kts | 111° |
| 2026-05-04 19:56 | 38.09941 | 21.58302 | 35096 ft | 485 kts | 112° |
| 2026-05-04 19:56 | 38.08444 | 21.62112 | 34870 ft | 483 kts | 112° |
| 2026-05-04 19:56 | 38.06950 | 21.65925 | 34621 ft | 482 kts | 112° |
| 2026-05-04 19:56 | 38.05463 | 21.69735 | 34196 ft | 480 kts | 112° |
| 2026-05-04 19:57 | 38.03991 | 21.73507 | 33606 ft | 478 kts | 112° |
| 2026-05-04 19:57 | 38.02519 | 21.77276 | 32976 ft | 478 kts | 112° |
| 2026-05-04 19:57 | 38.01055 | 21.81032 | 32317 ft | 478 kts | 112° |
| 2026-05-04 19:57 | 37.99588 | 21.84792 | 31646 ft | 478 kts | 112° |
| 2026-05-04 19:58 | 37.98118 | 21.88548 | 30967 ft | 478 kts | 112° |
| 2026-05-04 19:58 | 37.96646 | 21.92307 | 30279 ft | 478 kts | 112° |
| 2026-05-04 19:58 | 37.95174 | 21.96064 | 29617 ft | 478 kts | 112° |
| 2026-05-04 19:58 | 37.93707 | 21.99800 | 29177 ft | 473 kts | 112° |
| 2026-05-04 19:59 | 37.92255 | 22.03491 | 28729 ft | 468 kts | 112° |
| 2026-05-04 19:59 | 37.90818 | 22.07145 | 28275 ft | 463 kts | 112° |
| 2026-05-04 19:59 | 37.89390 | 22.10769 | 27802 ft | 459 kts | 112° |
| 2026-05-04 19:59 | 37.87977 | 22.14350 | 27341 ft | 454 kts | 112° |
| 2026-05-04 20:00 | 37.86578 | 22.17892 | 26889 ft | 450 kts | 112° |
| 2026-05-04 20:00 | 37.85192 | 22.21401 | 26429 ft | 445 kts | 112° |
| 2026-05-04 20:00 | 37.83819 | 22.24874 | 25962 ft | 441 kts | 112° |
| 2026-05-04 20:00 | 37.82456 | 22.28319 | 25472 ft | 438 kts | 112° |
| 2026-05-04 20:01 | 37.81104 | 22.31732 | 24979 ft | 434 kts | 112° |
| 2026-05-04 20:01 | 37.79763 | 22.35110 | 24489 ft | 430 kts | 112° |
| 2026-05-04 20:01 | 37.78432 | 22.38460 | 24005 ft | 426 kts | 112° |
| 2026-05-04 20:01 | 37.77114 | 22.41777 | 23542 ft | 422 kts | 112° |
| 2026-05-04 20:02 | 37.75809 | 22.45060 | 23088 ft | 417 kts | 112° |
| 2026-05-04 20:02 | 37.74514 | 22.48315 | 22642 ft | 413 kts | 112° |
| 2026-05-04 20:02 | 37.73230 | 22.51529 | 22179 ft | 410 kts | 112° |
| 2026-05-04 20:02 | 37.71957 | 22.54719 | 21718 ft | 406 kts | 112° |
| 2026-05-04 20:03 | 37.70701 | 22.57883 | 21272 ft | 402 kts | 111° |
| 2026-05-04 20:03 | 37.69539 | 22.61057 | 20828 ft | 398 kts | 110° |
| 2026-05-04 20:03 | 37.68409 | 22.64215 | 20393 ft | 395 kts | 109° |
| 2026-05-04 20:03 | 37.67292 | 22.67355 | 19952 ft | 392 kts | 110° |
| 2026-05-04 20:04 | 37.66185 | 22.70470 | 19507 ft | 389 kts | 110° |
| 2026-05-04 20:04 | 37.65081 | 22.73564 | 19040 ft | 387 kts | 110° |
| 2026-05-04 20:04 | 37.63984 | 22.76636 | 18592 ft | 384 kts | 110° |
| 2026-05-04 20:04 | 37.62892 | 22.79688 | 18124 ft | 382 kts | 110° |
| 2026-05-04 20:05 | 37.61807 | 22.82722 | 17663 ft | 380 kts | 111° |
| 2026-05-04 20:05 | 37.60725 | 22.85741 | 17208 ft | 378 kts | 111° |
| 2026-05-04 20:05 | 37.59649 | 22.88738 | 16745 ft | 375 kts | 111° |
| 2026-05-04 20:05 | 37.58580 | 22.91714 | 16287 ft | 373 kts | 111° |
| 2026-05-04 20:06 | 37.57515 | 22.94675 | 15832 ft | 370 kts | 111° |
| 2026-05-04 20:06 | 37.56460 | 22.97609 | 15372 ft | 368 kts | 111° |
| 2026-05-04 20:06 | 37.55408 | 23.00525 | 14917 ft | 365 kts | 112° |
| 2026-05-04 20:06 | 37.54366 | 23.03417 | 14458 ft | 363 kts | 112° |
| 2026-05-04 20:07 | 37.53328 | 23.06295 | 14003 ft | 360 kts | 112° |
| 2026-05-04 20:07 | 37.52298 | 23.09146 | 13547 ft | 358 kts | 112° |
| 2026-05-04 20:07 | 37.51272 | 23.11980 | 13094 ft | 356 kts | 112° |
| 2026-05-04 20:07 | 37.50250 | 23.14797 | 12644 ft | 354 kts | 111° |
| 2026-05-04 20:08 | 37.49232 | 23.17601 | 12198 ft | 352 kts | 111° |
| 2026-05-04 20:08 | 37.48370 | 23.20442 | 11717 ft | 346 kts | 98° |
| 2026-05-04 20:08 | 37.48449 | 23.23369 | 11257 ft | 333 kts | 71° |
| 2026-05-04 20:08 | 37.49429 | 23.25942 | 10842 ft | 325 kts | 56° |
| 2026-05-04 20:09 | 37.50553 | 23.28379 | 10522 ft | 319 kts | 57° |
| 2026-05-04 20:09 | 37.51623 | 23.30760 | 10379 ft | 307 kts | 57° |
| 2026-05-04 20:09 | 37.52639 | 23.33062 | 10252 ft | 296 kts | 57° |
| 2026-05-04 20:09 | 37.53610 | 23.35287 | 10105 ft | 286 kts | 57° |
| 2026-05-04 20:10 | 37.54557 | 23.37468 | 9794 ft | 282 kts | 57° |
| 2026-05-04 20:10 | 37.55487 | 23.39616 | 9505 ft | 278 kts | 57° |
| 2026-05-04 20:10 | 37.56408 | 23.41747 | 9132 ft | 277 kts | 57° |
| 2026-05-04 20:10 | 37.57328 | 23.43879 | 8751 ft | 277 kts | 57° |
| 2026-05-04 20:11 | 37.58237 | 23.45990 | 8469 ft | 273 kts | 57° |
| 2026-05-04 20:11 | 37.59142 | 23.48091 | 8030 ft | 275 kts | 57° |
| 2026-05-04 20:11 | 37.60043 | 23.50189 | 7771 ft | 269 kts | 57° |
| 2026-05-04 20:11 | 37.60914 | 23.52227 | 7648 ft | 259 kts | 57° |
| 2026-05-04 20:12 | 37.61749 | 23.54180 | 7562 ft | 247 kts | 57° |
| 2026-05-04 20:12 | 37.62555 | 23.56061 | 7350 ft | 242 kts | 57° |
| 2026-05-04 20:12 | 37.63347 | 23.57905 | 7112 ft | 237 kts | 57° |
| 2026-05-04 20:12 | 37.64125 | 23.59720 | 6865 ft | 234 kts | 57° |
| 2026-05-04 20:13 | 37.64891 | 23.61508 | 6600 ft | 231 kts | 57° |
| 2026-05-04 20:13 | 37.65655 | 23.63292 | 6228 ft | 234 kts | 57° |
| 2026-05-04 20:13 | 37.66427 | 23.65092 | 5985 ft | 231 kts | 58° |
| 2026-05-04 20:13 | 37.67191 | 23.66879 | 5612 ft | 234 kts | 58° |
| 2026-05-04 20:14 | 37.67990 | 23.68654 | 5344 ft | 230 kts | 51° |
| 2026-05-04 20:14 | 37.69053 | 23.70105 | 5115 ft | 223 kts | 37° |
| 2026-05-04 20:14 | 37.70278 | 23.71267 | 4899 ft | 218 kts | 33° |
| 2026-05-04 20:14 | 37.71516 | 23.72356 | 4654 ft | 217 kts | 33° |
| 2026-05-04 20:15 | 37.72746 | 23.73456 | 4360 ft | 217 kts | 33° |
| 2026-05-04 20:15 | 37.73968 | 23.74580 | 4067 ft | 217 kts | 34° |
| 2026-05-04 20:15 | 37.75179 | 23.75719 | 3814 ft | 216 kts | 34° |
| 2026-05-04 20:15 | 37.76371 | 23.76854 | 3600 ft | 214 kts | 35° |
| 2026-05-04 20:16 | 37.77550 | 23.77983 | 3382 ft | 211 kts | 35° |
| 2026-05-04 20:16 | 37.78679 | 23.79067 | 3325 ft | 196 kts | 34° |
| 2026-05-04 20:16 | 37.79694 | 23.80043 | 3281 ft | 170 kts | 34° |
| 2026-05-04 20:16 | 37.80579 | 23.80892 | 3193 ft | 151 kts | 34° |
| 2026-05-04 20:17 | 37.81405 | 23.81679 | 2989 ft | 147 kts | 34° |
| 2026-05-04 20:17 | 37.82219 | 23.82453 | 2784 ft | 146 kts | 34° |
| 2026-05-04 20:17 | 37.83033 | 23.83226 | 2588 ft | 146 kts | 34° |
| 2026-05-04 20:17 | 37.83843 | 23.83997 | 2390 ft | 145 kts | 34° |
| 2026-05-04 20:18 | 37.84648 | 23.84764 | 2191 ft | 145 kts | 34° |
| 2026-05-04 20:18 | 37.85451 | 23.85528 | 1993 ft | 144 kts | 35° |
| 2026-05-04 20:18 | 37.86251 | 23.86289 | 1802 ft | 144 kts | 35° |
| 2026-05-04 20:18 | 37.87050 | 23.87049 | 1615 ft | 143 kts | 35° |
| 2026-05-04 20:19 | 37.87846 | 23.87805 | 1426 ft | 143 kts | 36° |
| 2026-05-04 20:19 | 37.88633 | 23.88569 | 1233 ft | 142 kts | 36° |
| 2026-05-04 20:19 | 37.89430 | 23.89313 | 1041 ft | 142 kts | 36° |
| 2026-05-04 20:19 | 37.90217 | 23.90068 | 858 ft | 142 kts | 37° |
| 2026-05-04 20:20 | 37.91007 | 23.90812 | 655 ft | 141 kts | 35° |
| 2026-05-04 20:20 | 37.91792 | 23.91554 | 458 ft | 140 kts | 36° |
| 2026-05-04 20:20 | 37.92570 | 23.92297 | 313 ft | 139 kts | 36° |
| 2026-05-04 20:20 | 37.93285 | 23.92972 | 288 ft | 110 kts | 37° |
| 2026-05-04 20:21 | 37.93766 | 23.93428 | 288 ft | 67 kts | 39° |
| 2026-05-04 20:21 | 37.94090 | 23.93737 | 288 ft | 38 kts | 38° |
| 2026-05-04 20:21 | 37.94274 | 23.94060 | 288 ft | 17 kts | 68° |
| 2026-05-04 20:22 | 37.94322 | 23.94207 | 288 ft | 18 kts | 64° |
| 2026-05-04 20:22 | 37.94409 | 23.94317 | 287 ft | 17 kts | 36° |
| 2026-05-04 20:22 | 37.94510 | 23.94411 | 288 ft | 18 kts | 37° |
| 2026-05-04 20:22 | 37.94611 | 23.94507 | 288 ft | 18 kts | 37° |
| 2026-05-04 20:23 | 37.94683 | 23.94624 | 288 ft | 17 kts | 101° |
| 2026-05-04 20:23 | 37.94612 | 23.94744 | 288 ft | 17 kts | 129° |
| 2026-05-04 20:23 | 37.94539 | 23.94867 | 288 ft | 17 kts | 126° |
| 2026-05-04 20:23 | 37.94465 | 23.94993 | 288 ft | 17 kts | 126° |
| 2026-05-04 20:24 | 37.94391 | 23.95120 | 288 ft | 14 kts | 126° |
| 2026-05-04 20:24 | 37.94322 | 23.95206 | 288 ft | 14 kts | 133° |
| 2026-05-04 20:24 | 37.94266 | 23.95295 | 288 ft | 9 kts | 127° |
| 2026-05-04 20:24 | 37.94232 | 23.95342 | 288 ft | 5 kts | 159° |
| 2026-05-04 20:25 | 37.94190 | 23.95326 | 288 ft | 7 kts | 214° |
| 2026-05-04 20:25 | 37.94170 | 23.95307 | 288 ft | 2 kts | 215° |
| 2026-05-04 20:25 | 37.94165 | 23.95303 | 288 ft | 0 kts | 215° |